sensor_id;sensor_type;location;lat;lon;timestamp;P1;durP1;ratioP1;P2;durP2;ratioP2
8228;SDS011;4155;50.118;8.714;2022-12-05T00:01:12;17.90;;;9.70;;
8228;SDS011;4155;50.118;8.714;2022-12-05T00:03:42;15.40;;;9.83;;
8228;SDS011;4155;50.118;8.714;2022-12-05T00:06:11;13.17;;;8.10;;
8228;SDS011;4155;50.118;8.714;2022-12-05T00:08:40;16.47;;;8.20;;
8228;SDS011;4155;50.118;8.714;2022-12-05T00:11:11;15.40;;;8.57;;
8228;SDS011;4155;50.118;8.714;2022-12-05T00:13:39;17.07;;;7.83;;
8228;SDS011;4155;50.118;8.714;2022-12-05T00:16:08;16.10;;;8.73;;
8228;SDS011;4155;50.118;8.714;2022-12-05T00:18:38;18.10;;;8.00;;
8228;SDS011;4155;50.118;8.714;2022-12-05T00:21:06;19.43;;;9.03;;
8228;SDS011;4155;50.118;8.714;2022-12-05T00:23:40;15.23;;;8.13;;
8228;SDS011;4155;50.118;8.714;2022-12-05T00:26:08;14.73;;;9.40;;
8228;SDS011;4155;50.118;8.714;2022-12-05T00:28:37;13.73;;;8.50;;
8228;SDS011;4155;50.118;8.714;2022-12-05T00:31:06;15.10;;;8.50;;
8228;SDS011;4155;50.118;8.714;2022-12-05T00:33:35;18.23;;;8.33;;
8228;SDS011;4155;50.118;8.714;2022-12-05T00:36:03;16.57;;;8.60;;
8228;SDS011;4155;50.118;8.714;2022-12-05T00:38:33;20.17;;;9.03;;
8228;SDS011;4155;50.118;8.714;2022-12-05T00:41:03;20.27;;;8.67;;
8228;SDS011;4155;50.118;8.714;2022-12-05T00:43:31;18.57;;;8.80;;
8228;SDS011;4155;50.118;8.714;2022-12-05T00:46:00;18.17;;;8.87;;
8228;SDS011;4155;50.118;8.714;2022-12-05T00:48:28;19.70;;;9.77;;
8228;SDS011;4155;50.118;8.714;2022-12-05T00:51:00;15.83;;;8.53;;
8228;SDS011;4155;50.118;8.714;2022-12-05T00:53:28;17.27;;;8.70;;
8228;SDS011;4155;50.118;8.714;2022-12-05T00:55:56;15.53;;;8.60;;
8228;SDS011;4155;50.118;8.714;2022-12-05T00:58:28;13.47;;;8.07;;
8228;SDS011;4155;50.118;8.714;2022-12-05T01:00:57;23.40;;;8.77;;
8228;SDS011;4155;50.118;8.714;2022-12-05T01:03:31;17.10;;;8.23;;
8228;SDS011;4155;50.118;8.714;2022-12-05T01:05:58;15.77;;;8.50;;
8228;SDS011;4155;50.118;8.714;2022-12-05T01:08:26;14.37;;;8.97;;
8228;SDS011;4155;50.118;8.714;2022-12-05T01:10:56;14.30;;;8.30;;
8228;SDS011;4155;50.118;8.714;2022-12-05T01:13:24;15.73;;;7.23;;
8228;SDS011;4155;50.118;8.714;2022-12-05T01:15:54;17.83;;;9.50;;
8228;SDS011;4155;50.118;8.714;2022-12-05T01:18:22;14.43;;;8.23;;
8228;SDS011;4155;50.118;8.714;2022-12-05T01:20:51;16.50;;;9.07;;
8228;SDS011;4155;50.118;8.714;2022-12-05T01:23:19;14.57;;;8.47;;
8228;SDS011;4155;50.118;8.714;2022-12-05T01:25:48;15.37;;;8.90;;
8228;SDS011;4155;50.118;8.714;2022-12-05T01:28:17;18.90;;;8.37;;
8228;SDS011;4155;50.118;8.714;2022-12-05T01:30:46;22.67;;;9.13;;
8228;SDS011;4155;50.118;8.714;2022-12-05T01:33:16;18.57;;;8.17;;
8228;SDS011;4155;50.118;8.714;2022-12-05T01:35:44;16.40;;;8.70;;
8228;SDS011;4155;50.118;8.714;2022-12-05T01:38:11;20.10;;;9.07;;
8228;SDS011;4155;50.118;8.714;2022-12-05T01:40:39;22.00;;;9.70;;
8228;SDS011;4155;50.118;8.714;2022-12-05T01:43:09;17.67;;;9.07;;
8228;SDS011;4155;50.118;8.714;2022-12-05T01:45:41;21.47;;;8.60;;
8228;SDS011;4155;50.118;8.714;2022-12-05T01:48:10;21.17;;;9.20;;
8228;SDS011;4155;50.118;8.714;2022-12-05T01:50:44;19.13;;;10.53;;
8228;SDS011;4155;50.118;8.714;2022-12-05T01:53:13;19.80;;;9.40;;
8228;SDS011;4155;50.118;8.714;2022-12-05T01:55:42;16.17;;;8.60;;
8228;SDS011;4155;50.118;8.714;2022-12-05T01:58:11;15.10;;;8.77;;
8228;SDS011;4155;50.118;8.714;2022-12-05T02:00:39;18.40;;;9.10;;
8228;SDS011;4155;50.118;8.714;2022-12-05T02:03:08;15.43;;;8.27;;
8228;SDS011;4155;50.118;8.714;2022-12-05T02:05:41;19.10;;;8.67;;
8228;SDS011;4155;50.118;8.714;2022-12-05T02:08:10;21.90;;;10.67;;
8228;SDS011;4155;50.118;8.714;2022-12-05T02:10:38;18.80;;;9.97;;
8228;SDS011;4155;50.118;8.714;2022-12-05T02:13:12;15.30;;;8.40;;
8228;SDS011;4155;50.118;8.714;2022-12-05T02:15:57;15.73;;;9.37;;
8228;SDS011;4155;50.118;8.714;2022-12-05T02:18:32;18.70;;;10.60;;
8228;SDS011;4155;50.118;8.714;2022-12-05T02:21:21;20.77;;;9.27;;
8228;SDS011;4155;50.118;8.714;2022-12-05T02:27:16;20.93;;;8.67;;
8228;SDS011;4155;50.118;8.714;2022-12-05T02:30:06;18.93;;;10.07;;
8228;SDS011;4155;50.118;8.714;2022-12-05T02:32:46;22.67;;;10.50;;
8228;SDS011;4155;50.118;8.714;2022-12-05T02:35:27;21.00;;;9.27;;
8228;SDS011;4155;50.118;8.714;2022-12-05T02:38:08;20.40;;;9.40;;
8228;SDS011;4155;50.118;8.714;2022-12-05T02:40:42;19.00;;;9.57;;
8228;SDS011;4155;50.118;8.714;2022-12-05T02:43:18;19.50;;;9.30;;
8228;SDS011;4155;50.118;8.714;2022-12-05T02:45:51;20.83;;;9.60;;
8228;SDS011;4155;50.118;8.714;2022-12-05T02:48:24;15.20;;;7.97;;
8228;SDS011;4155;50.118;8.714;2022-12-05T02:50:54;18.77;;;8.60;;
8228;SDS011;4155;50.118;8.714;2022-12-05T02:53:25;20.33;;;9.90;;
8228;SDS011;4155;50.118;8.714;2022-12-05T02:55:55;15.57;;;8.87;;
8228;SDS011;4155;50.118;8.714;2022-12-05T02:58:25;21.57;;;9.90;;
8228;SDS011;4155;50.118;8.714;2022-12-05T03:01:01;16.03;;;8.73;;
8228;SDS011;4155;50.118;8.714;2022-12-05T03:03:30;20.60;;;9.67;;
8228;SDS011;4155;50.118;8.714;2022-12-05T03:06:00;18.77;;;9.30;;
8228;SDS011;4155;50.118;8.714;2022-12-05T03:08:31;20.73;;;10.03;;
8228;SDS011;4155;50.118;8.714;2022-12-05T03:11:03;19.20;;;10.20;;
8228;SDS011;4155;50.118;8.714;2022-12-05T03:13:32;18.20;;;9.83;;
8228;SDS011;4155;50.118;8.714;2022-12-05T03:16:09;15.33;;;9.30;;
8228;SDS011;4155;50.118;8.714;2022-12-05T03:18:41;19.40;;;8.33;;
8228;SDS011;4155;50.118;8.714;2022-12-05T03:21:16;18.13;;;9.90;;
8228;SDS011;4155;50.118;8.714;2022-12-05T03:23:49;17.83;;;9.07;;
8228;SDS011;4155;50.118;8.714;2022-12-05T03:26:23;17.47;;;8.87;;
8228;SDS011;4155;50.118;8.714;2022-12-05T03:29:02;16.23;;;8.83;;
8228;SDS011;4155;50.118;8.714;2022-12-05T03:31:47;24.50;;;9.80;;
8228;SDS011;4155;50.118;8.714;2022-12-05T03:34:25;20.00;;;8.77;;
8228;SDS011;4155;50.118;8.714;2022-12-05T03:37:00;18.03;;;9.60;;
8228;SDS011;4155;50.118;8.714;2022-12-05T03:39:33;19.30;;;10.20;;
8228;SDS011;4155;50.118;8.714;2022-12-05T03:42:08;17.03;;;9.60;;
8228;SDS011;4155;50.118;8.714;2022-12-05T03:44:41;17.30;;;9.77;;
8228;SDS011;4155;50.118;8.714;2022-12-05T03:47:15;22.37;;;9.23;;
8228;SDS011;4155;50.118;8.714;2022-12-05T03:49:48;17.50;;;9.63;;
8228;SDS011;4155;50.118;8.714;2022-12-05T03:52:19;21.90;;;9.13;;
8228;SDS011;4155;50.118;8.714;2022-12-05T03:54:51;17.53;;;8.70;;
8228;SDS011;4155;50.118;8.714;2022-12-05T03:57:23;15.90;;;8.63;;
8228;SDS011;4155;50.118;8.714;2022-12-05T03:59:54;17.57;;;9.27;;
8228;SDS011;4155;50.118;8.714;2022-12-05T04:02:27;16.93;;;8.50;;
8228;SDS011;4155;50.118;8.714;2022-12-05T04:05:00;19.10;;;9.47;;
8228;SDS011;4155;50.118;8.714;2022-12-05T04:07:33;13.40;;;8.27;;
8228;SDS011;4155;50.118;8.714;2022-12-05T04:10:05;19.07;;;9.20;;
8228;SDS011;4155;50.118;8.714;2022-12-05T04:12:36;18.07;;;9.07;;
8228;SDS011;4155;50.118;8.714;2022-12-05T04:15:10;18.47;;;8.67;;
8228;SDS011;4155;50.118;8.714;2022-12-05T04:17:44;19.07;;;10.50;;
8228;SDS011;4155;50.118;8.714;2022-12-05T04:20:20;18.43;;;9.17;;
8228;SDS011;4155;50.118;8.714;2022-12-05T04:23:10;18.97;;;9.70;;
8228;SDS011;4155;50.118;8.714;2022-12-05T04:25:41;17.90;;;9.10;;
8228;SDS011;4155;50.118;8.714;2022-12-05T04:28:24;17.00;;;9.17;;
8228;SDS011;4155;50.118;8.714;2022-12-05T04:30:57;19.93;;;10.20;;
8228;SDS011;4155;50.118;8.714;2022-12-05T04:33:32;21.80;;;10.30;;
8228;SDS011;4155;50.118;8.714;2022-12-05T04:36:08;19.13;;;10.13;;
8228;SDS011;4155;50.118;8.714;2022-12-05T04:38:41;20.80;;;10.50;;
8228;SDS011;4155;50.118;8.714;2022-12-05T04:41:15;22.50;;;10.40;;
8228;SDS011;4155;50.118;8.714;2022-12-05T04:43:47;18.40;;;9.80;;
8228;SDS011;4155;50.118;8.714;2022-12-05T04:46:17;22.07;;;10.30;;
8228;SDS011;4155;50.118;8.714;2022-12-05T04:48:50;19.40;;;9.80;;
8228;SDS011;4155;50.118;8.714;2022-12-05T04:51:21;18.93;;;9.83;;
8228;SDS011;4155;50.118;8.714;2022-12-05T04:53:53;22.80;;;9.73;;
8228;SDS011;4155;50.118;8.714;2022-12-05T04:56:24;26.73;;;10.07;;
8228;SDS011;4155;50.118;8.714;2022-12-05T04:58:55;20.70;;;9.30;;
8228;SDS011;4155;50.118;8.714;2022-12-05T05:01:24;21.97;;;10.13;;
8228;SDS011;4155;50.118;8.714;2022-12-05T05:04:00;16.37;;;9.20;;
8228;SDS011;4155;50.118;8.714;2022-12-05T05:06:35;23.30;;;9.73;;
8228;SDS011;4155;50.118;8.714;2022-12-05T05:09:03;16.80;;;9.03;;
8228;SDS011;4155;50.118;8.714;2022-12-05T05:11:31;20.50;;;9.60;;
8228;SDS011;4155;50.118;8.714;2022-12-05T05:14:01;19.07;;;9.50;;
8228;SDS011;4155;50.118;8.714;2022-12-05T05:16:30;23.33;;;11.50;;
8228;SDS011;4155;50.118;8.714;2022-12-05T05:19:00;22.33;;;9.70;;
8228;SDS011;4155;50.118;8.714;2022-12-05T05:21:29;23.20;;;9.50;;
8228;SDS011;4155;50.118;8.714;2022-12-05T05:23:58;23.63;;;9.60;;
8228;SDS011;4155;50.118;8.714;2022-12-05T05:26:26;22.93;;;9.83;;
8228;SDS011;4155;50.118;8.714;2022-12-05T05:28:56;23.20;;;10.70;;
8228;SDS011;4155;50.118;8.714;2022-12-05T05:31:24;20.27;;;9.77;;
8228;SDS011;4155;50.118;8.714;2022-12-05T05:33:52;21.20;;;10.00;;
8228;SDS011;4155;50.118;8.714;2022-12-05T05:36:23;16.80;;;9.30;;
8228;SDS011;4155;50.118;8.714;2022-12-05T05:38:53;33.27;;;10.13;;
8228;SDS011;4155;50.118;8.714;2022-12-05T05:41:23;18.40;;;9.40;;
8228;SDS011;4155;50.118;8.714;2022-12-05T05:43:52;22.00;;;9.43;;
8228;SDS011;4155;50.118;8.714;2022-12-05T05:46:22;22.30;;;10.63;;
8228;SDS011;4155;50.118;8.714;2022-12-05T05:48:51;20.33;;;10.10;;
8228;SDS011;4155;50.118;8.714;2022-12-05T05:51:19;21.53;;;10.07;;
8228;SDS011;4155;50.118;8.714;2022-12-05T05:53:50;22.80;;;9.77;;
8228;SDS011;4155;50.118;8.714;2022-12-05T05:56:18;21.13;;;10.03;;
8228;SDS011;4155;50.118;8.714;2022-12-05T05:58:47;27.87;;;9.80;;
8228;SDS011;4155;50.118;8.714;2022-12-05T06:01:21;21.03;;;9.50;;
8228;SDS011;4155;50.118;8.714;2022-12-05T06:03:49;16.60;;;8.97;;
8228;SDS011;4155;50.118;8.714;2022-12-05T06:06:17;22.00;;;10.40;;
8228;SDS011;4155;50.118;8.714;2022-12-05T06:08:47;27.50;;;11.07;;
8228;SDS011;4155;50.118;8.714;2022-12-05T06:11:16;20.97;;;10.30;;
8228;SDS011;4155;50.118;8.714;2022-12-05T06:13:51;21.13;;;9.37;;
8228;SDS011;4155;50.118;8.714;2022-12-05T06:16:20;23.20;;;10.30;;
8228;SDS011;4155;50.118;8.714;2022-12-05T06:18:48;20.50;;;9.43;;
8228;SDS011;4155;50.118;8.714;2022-12-05T06:21:16;20.40;;;9.80;;
8228;SDS011;4155;50.118;8.714;2022-12-05T06:23:44;17.13;;;7.90;;
8228;SDS011;4155;50.118;8.714;2022-12-05T06:26:14;17.90;;;9.50;;
8228;SDS011;4155;50.118;8.714;2022-12-05T06:28:45;18.43;;;8.77;;
8228;SDS011;4155;50.118;8.714;2022-12-05T06:31:14;29.43;;;10.03;;
8228;SDS011;4155;50.118;8.714;2022-12-05T06:33:42;17.70;;;9.40;;
8228;SDS011;4155;50.118;8.714;2022-12-05T06:36:11;21.07;;;10.00;;
8228;SDS011;4155;50.118;8.714;2022-12-05T06:38:41;17.10;;;9.20;;
8228;SDS011;4155;50.118;8.714;2022-12-05T06:41:09;20.83;;;10.00;;
8228;SDS011;4155;50.118;8.714;2022-12-05T06:43:41;19.90;;;9.47;;
8228;SDS011;4155;50.118;8.714;2022-12-05T06:46:10;17.70;;;9.80;;
8228;SDS011;4155;50.118;8.714;2022-12-05T06:48:39;21.70;;;9.90;;
8228;SDS011;4155;50.118;8.714;2022-12-05T06:51:08;17.13;;;8.80;;
8228;SDS011;4155;50.118;8.714;2022-12-05T06:53:36;17.70;;;8.90;;
8228;SDS011;4155;50.118;8.714;2022-12-05T06:56:05;27.33;;;8.97;;
8228;SDS011;4155;50.118;8.714;2022-12-05T06:58:37;18.63;;;9.83;;
8228;SDS011;4155;50.118;8.714;2022-12-05T07:01:09;22.40;;;9.97;;
8228;SDS011;4155;50.118;8.714;2022-12-05T07:03:56;20.83;;;9.00;;
8228;SDS011;4155;50.118;8.714;2022-12-05T07:06:24;17.03;;;8.10;;
8228;SDS011;4155;50.118;8.714;2022-12-05T07:08:52;16.27;;;7.53;;
8228;SDS011;4155;50.118;8.714;2022-12-05T07:11:21;17.07;;;8.63;;
8228;SDS011;4155;50.118;8.714;2022-12-05T07:13:48;20.87;;;8.77;;
8228;SDS011;4155;50.118;8.714;2022-12-05T07:16:17;19.30;;;8.10;;
8228;SDS011;4155;50.118;8.714;2022-12-05T07:18:45;18.40;;;8.60;;
8228;SDS011;4155;50.118;8.714;2022-12-05T07:21:13;19.90;;;8.60;;
8228;SDS011;4155;50.118;8.714;2022-12-05T07:23:42;19.53;;;7.73;;
8228;SDS011;4155;50.118;8.714;2022-12-05T07:26:12;19.87;;;8.63;;
8228;SDS011;4155;50.118;8.714;2022-12-05T07:28:41;18.70;;;9.30;;
8228;SDS011;4155;50.118;8.714;2022-12-05T07:31:09;13.53;;;7.67;;
8228;SDS011;4155;50.118;8.714;2022-12-05T07:33:41;21.63;;;9.20;;
8228;SDS011;4155;50.118;8.714;2022-12-05T07:36:10;19.33;;;9.30;;
8228;SDS011;4155;50.118;8.714;2022-12-05T07:38:39;20.10;;;9.33;;
8228;SDS011;4155;50.118;8.714;2022-12-05T07:41:08;18.23;;;8.30;;
8228;SDS011;4155;50.118;8.714;2022-12-05T07:43:39;20.47;;;9.70;;
8228;SDS011;4155;50.118;8.714;2022-12-05T07:46:07;23.93;;;9.80;;
8228;SDS011;4155;50.118;8.714;2022-12-05T07:48:37;21.47;;;9.30;;
8228;SDS011;4155;50.118;8.714;2022-12-05T07:51:07;21.00;;;9.30;;
8228;SDS011;4155;50.118;8.714;2022-12-05T07:53:36;24.60;;;8.70;;
8228;SDS011;4155;50.118;8.714;2022-12-05T07:56:05;19.93;;;8.97;;
8228;SDS011;4155;50.118;8.714;2022-12-05T07:58:34;22.17;;;9.90;;
8228;SDS011;4155;50.118;8.714;2022-12-05T08:01:05;20.80;;;10.07;;
8228;SDS011;4155;50.118;8.714;2022-12-05T08:03:34;23.17;;;9.80;;
8228;SDS011;4155;50.118;8.714;2022-12-05T08:06:02;22.77;;;10.00;;
8228;SDS011;4155;50.118;8.714;2022-12-05T08:08:32;17.60;;;9.27;;
8228;SDS011;4155;50.118;8.714;2022-12-05T08:11:03;21.27;;;9.40;;
8228;SDS011;4155;50.118;8.714;2022-12-05T08:13:32;23.50;;;9.50;;
8228;SDS011;4155;50.118;8.714;2022-12-05T08:16:01;25.77;;;9.67;;
8228;SDS011;4155;50.118;8.714;2022-12-05T08:18:29;18.33;;;8.70;;
8228;SDS011;4155;50.118;8.714;2022-12-05T08:21:00;19.13;;;9.30;;
8228;SDS011;4155;50.118;8.714;2022-12-05T08:23:28;22.30;;;9.33;;
8228;SDS011;4155;50.118;8.714;2022-12-05T08:26:01;18.50;;;7.77;;
8228;SDS011;4155;50.118;8.714;2022-12-05T08:28:29;17.73;;;8.43;;
8228;SDS011;4155;50.118;8.714;2022-12-05T08:31:01;17.63;;;8.97;;
8228;SDS011;4155;50.118;8.714;2022-12-05T08:33:30;19.67;;;9.23;;
8228;SDS011;4155;50.118;8.714;2022-12-05T08:35:59;23.17;;;8.80;;
8228;SDS011;4155;50.118;8.714;2022-12-05T08:38:30;18.57;;;8.83;;
8228;SDS011;4155;50.118;8.714;2022-12-05T08:41:02;13.77;;;7.77;;
8228;SDS011;4155;50.118;8.714;2022-12-05T08:43:31;20.83;;;9.20;;
8228;SDS011;4155;50.118;8.714;2022-12-05T08:45:59;19.63;;;9.53;;
8228;SDS011;4155;50.118;8.714;2022-12-05T08:48:28;19.17;;;9.20;;
8228;SDS011;4155;50.118;8.714;2022-12-05T08:50:57;20.83;;;9.13;;
8228;SDS011;4155;50.118;8.714;2022-12-05T08:53:26;23.10;;;9.73;;
8228;SDS011;4155;50.118;8.714;2022-12-05T08:55:53;23.57;;;10.60;;
8228;SDS011;4155;50.118;8.714;2022-12-05T08:58:22;19.53;;;9.60;;
8228;SDS011;4155;50.118;8.714;2022-12-05T09:00:50;21.00;;;9.50;;
8228;SDS011;4155;50.118;8.714;2022-12-05T09:03:18;22.80;;;10.40;;
8228;SDS011;4155;50.118;8.714;2022-12-05T09:05:46;14.83;;;8.07;;
8228;SDS011;4155;50.118;8.714;2022-12-05T09:08:20;21.87;;;9.20;;
8228;SDS011;4155;50.118;8.714;2022-12-05T09:10:47;22.70;;;9.87;;
8228;SDS011;4155;50.118;8.714;2022-12-05T09:13:15;25.00;;;10.07;;
8228;SDS011;4155;50.118;8.714;2022-12-05T09:15:44;26.63;;;11.47;;
8228;SDS011;4155;50.118;8.714;2022-12-05T09:18:12;21.73;;;10.67;;
8228;SDS011;4155;50.118;8.714;2022-12-05T09:20:40;32.37;;;10.67;;
8228;SDS011;4155;50.118;8.714;2022-12-05T09:23:08;25.70;;;10.67;;
8228;SDS011;4155;50.118;8.714;2022-12-05T09:25:41;18.13;;;9.97;;
8228;SDS011;4155;50.118;8.714;2022-12-05T09:28:08;29.23;;;12.97;;
8228;SDS011;4155;50.118;8.714;2022-12-05T09:30:36;27.80;;;12.60;;
8228;SDS011;4155;50.118;8.714;2022-12-05T09:33:05;20.47;;;10.80;;
8228;SDS011;4155;50.118;8.714;2022-12-05T09:35:33;21.27;;;9.67;;
8228;SDS011;4155;50.118;8.714;2022-12-05T09:38:05;21.87;;;10.17;;
8228;SDS011;4155;50.118;8.714;2022-12-05T09:40:32;31.23;;;9.63;;
8228;SDS011;4155;50.118;8.714;2022-12-05T09:43:01;28.00;;;10.37;;
8228;SDS011;4155;50.118;8.714;2022-12-05T09:45:33;24.33;;;10.40;;
8228;SDS011;4155;50.118;8.714;2022-12-05T09:48:08;25.43;;;11.47;;
8228;SDS011;4155;50.118;8.714;2022-12-05T09:50:39;25.53;;;11.10;;
8228;SDS011;4155;50.118;8.714;2022-12-05T09:53:12;25.30;;;10.93;;
8228;SDS011;4155;50.118;8.714;2022-12-05T09:55:51;24.93;;;10.20;;
8228;SDS011;4155;50.118;8.714;2022-12-05T09:58:28;25.77;;;11.47;;
8228;SDS011;4155;50.118;8.714;2022-12-05T10:01:11;30.43;;;10.93;;
8228;SDS011;4155;50.118;8.714;2022-12-05T10:03:55;26.73;;;9.70;;
8228;SDS011;4155;50.118;8.714;2022-12-05T10:06:32;26.13;;;11.30;;
8228;SDS011;4155;50.118;8.714;2022-12-05T10:09:10;23.80;;;10.50;;
8228;SDS011;4155;50.118;8.714;2022-12-05T10:11:51;23.50;;;9.90;;
8228;SDS011;4155;50.118;8.714;2022-12-05T10:14:25;23.10;;;10.03;;
8228;SDS011;4155;50.118;8.714;2022-12-05T10:17:02;18.60;;;9.90;;
8228;SDS011;4155;50.118;8.714;2022-12-05T10:19:37;25.23;;;11.17;;
8228;SDS011;4155;50.118;8.714;2022-12-05T10:22:10;21.40;;;10.50;;
8228;SDS011;4155;50.118;8.714;2022-12-05T10:24:46;18.87;;;9.30;;
8228;SDS011;4155;50.118;8.714;2022-12-05T10:27:18;22.20;;;9.50;;
8228;SDS011;4155;50.118;8.714;2022-12-05T10:29:49;16.03;;;8.80;;
8228;SDS011;4155;50.118;8.714;2022-12-05T10:32:25;24.13;;;9.40;;
8228;SDS011;4155;50.118;8.714;2022-12-05T10:35:00;20.67;;;9.57;;
8228;SDS011;4155;50.118;8.714;2022-12-05T10:37:40;22.17;;;10.00;;
8228;SDS011;4155;50.118;8.714;2022-12-05T10:40:12;23.73;;;8.40;;
8228;SDS011;4155;50.118;8.714;2022-12-05T10:42:40;19.37;;;9.77;;
8228;SDS011;4155;50.118;8.714;2022-12-05T10:45:13;18.30;;;9.60;;
8228;SDS011;4155;50.118;8.714;2022-12-05T10:47:42;19.23;;;9.67;;
8228;SDS011;4155;50.118;8.714;2022-12-05T10:50:18;28.43;;;11.90;;
8228;SDS011;4155;50.118;8.714;2022-12-05T10:52:49;23.00;;;10.10;;
8228;SDS011;4155;50.118;8.714;2022-12-05T10:55:19;20.30;;;9.27;;
8228;SDS011;4155;50.118;8.714;2022-12-05T10:57:48;21.03;;;10.37;;
8228;SDS011;4155;50.118;8.714;2022-12-05T11:00:22;16.63;;;10.10;;
8228;SDS011;4155;50.118;8.714;2022-12-05T11:02:56;21.60;;;10.03;;
8228;SDS011;4155;50.118;8.714;2022-12-05T11:05:30;19.63;;;7.90;;
8228;SDS011;4155;50.118;8.714;2022-12-05T11:08:00;21.93;;;10.40;;
8228;SDS011;4155;50.118;8.714;2022-12-05T11:10:29;22.83;;;9.30;;
8228;SDS011;4155;50.118;8.714;2022-12-05T11:13:00;19.67;;;9.93;;
8228;SDS011;4155;50.118;8.714;2022-12-05T11:15:43;18.37;;;9.40;;
8228;SDS011;4155;50.118;8.714;2022-12-05T11:18:21;20.00;;;10.50;;
8228;SDS011;4155;50.118;8.714;2022-12-05T11:20:56;25.43;;;10.20;;
8228;SDS011;4155;50.118;8.714;2022-12-05T11:23:35;16.33;;;9.67;;
8228;SDS011;4155;50.118;8.714;2022-12-05T11:26:03;16.70;;;8.97;;
8228;SDS011;4155;50.118;8.714;2022-12-05T11:28:41;18.27;;;9.37;;
8228;SDS011;4155;50.118;8.714;2022-12-05T11:31:18;15.67;;;8.57;;
8228;SDS011;4155;50.118;8.714;2022-12-05T11:33:58;20.30;;;9.30;;
8228;SDS011;4155;50.118;8.714;2022-12-05T11:36:31;15.87;;;8.77;;
8228;SDS011;4155;50.118;8.714;2022-12-05T11:39:07;16.23;;;7.60;;
8228;SDS011;4155;50.118;8.714;2022-12-05T11:41:40;13.33;;;8.03;;
8228;SDS011;4155;50.118;8.714;2022-12-05T11:44:24;13.47;;;7.30;;
8228;SDS011;4155;50.118;8.714;2022-12-05T11:47:05;11.63;;;7.30;;
8228;SDS011;4155;50.118;8.714;2022-12-05T11:49:44;11.77;;;6.50;;
8228;SDS011;4155;50.118;8.714;2022-12-05T11:52:30;13.03;;;6.90;;
8228;SDS011;4155;50.118;8.714;2022-12-05T11:55:13;11.50;;;7.07;;
8228;SDS011;4155;50.118;8.714;2022-12-05T12:00:43;10.70;;;5.40;;
8228;SDS011;4155;50.118;8.714;2022-12-05T12:03:38;10.10;;;5.80;;
8228;SDS011;4155;50.118;8.714;2022-12-05T12:06:24;10.47;;;6.37;;
8228;SDS011;4155;50.118;8.714;2022-12-05T12:09:04;17.27;;;6.20;;
8228;SDS011;4155;50.118;8.714;2022-12-05T12:11:45;16.87;;;7.03;;
8228;SDS011;4155;50.118;8.714;2022-12-05T12:14:23;10.17;;;6.10;;
8228;SDS011;4155;50.118;8.714;2022-12-05T12:16:59;11.33;;;6.07;;
8228;SDS011;4155;50.118;8.714;2022-12-05T12:19:41;12.27;;;7.30;;
8228;SDS011;4155;50.118;8.714;2022-12-05T12:22:33;15.70;;;7.10;;
8228;SDS011;4155;50.118;8.714;2022-12-05T12:25:19;13.27;;;6.90;;
8228;SDS011;4155;50.118;8.714;2022-12-05T12:27:56;15.37;;;6.93;;
8228;SDS011;4155;50.118;8.714;2022-12-05T12:30:36;10.17;;;6.67;;
8228;SDS011;4155;50.118;8.714;2022-12-05T12:33:13;11.07;;;7.00;;
8228;SDS011;4155;50.118;8.714;2022-12-05T12:35:54;11.47;;;6.20;;
8228;SDS011;4155;50.118;8.714;2022-12-05T12:38:33;11.73;;;7.07;;
8228;SDS011;4155;50.118;8.714;2022-12-05T12:41:21;10.90;;;5.83;;
8228;SDS011;4155;50.118;8.714;2022-12-05T12:44:03;10.30;;;6.03;;
8228;SDS011;4155;50.118;8.714;2022-12-05T12:46:41;9.77;;;5.87;;
8228;SDS011;4155;50.118;8.714;2022-12-05T12:49:21;8.33;;;5.40;;
8228;SDS011;4155;50.118;8.714;2022-12-05T12:52:03;10.70;;;6.10;;
8228;SDS011;4155;50.118;8.714;2022-12-05T12:54:40;11.03;;;5.77;;
8228;SDS011;4155;50.118;8.714;2022-12-05T12:57:33;15.97;;;6.47;;
8228;SDS011;4155;50.118;8.714;2022-12-05T13:00:18;12.17;;;6.50;;
8228;SDS011;4155;50.118;8.714;2022-12-05T13:02:50;15.90;;;5.63;;
8228;SDS011;4155;50.118;8.714;2022-12-05T13:05:28;12.87;;;6.20;;
8228;SDS011;4155;50.118;8.714;2022-12-05T13:08:00;10.90;;;6.40;;
8228;SDS011;4155;50.118;8.714;2022-12-05T13:10:33;11.83;;;6.60;;
8228;SDS011;4155;50.118;8.714;2022-12-05T13:13:07;11.70;;;6.17;;
8228;SDS011;4155;50.118;8.714;2022-12-05T13:15:40;13.83;;;7.13;;
8228;SDS011;4155;50.118;8.714;2022-12-05T13:18:14;11.13;;;6.87;;
8228;SDS011;4155;50.118;8.714;2022-12-05T13:20:43;16.70;;;7.10;;
8228;SDS011;4155;50.118;8.714;2022-12-05T13:23:14;11.43;;;6.73;;
8228;SDS011;4155;50.118;8.714;2022-12-05T13:25:44;11.80;;;6.50;;
8228;SDS011;4155;50.118;8.714;2022-12-05T13:28:22;13.53;;;6.70;;
8228;SDS011;4155;50.118;8.714;2022-12-05T13:30:54;15.10;;;6.60;;
8228;SDS011;4155;50.118;8.714;2022-12-05T13:33:29;17.23;;;7.90;;
8228;SDS011;4155;50.118;8.714;2022-12-05T13:36:03;14.63;;;7.50;;
8228;SDS011;4155;50.118;8.714;2022-12-05T13:38:55;15.30;;;7.57;;
8228;SDS011;4155;50.118;8.714;2022-12-05T13:41:43;14.93;;;7.07;;
8228;SDS011;4155;50.118;8.714;2022-12-05T13:44:33;16.07;;;8.50;;
8228;SDS011;4155;50.118;8.714;2022-12-05T13:47:04;20.20;;;8.10;;
8228;SDS011;4155;50.118;8.714;2022-12-05T13:49:44;17.90;;;8.30;;
8228;SDS011;4155;50.118;8.714;2022-12-05T13:52:17;14.53;;;7.40;;
8228;SDS011;4155;50.118;8.714;2022-12-05T13:54:53;15.80;;;7.97;;
8228;SDS011;4155;50.118;8.714;2022-12-05T14:00:21;17.70;;;8.10;;
8228;SDS011;4155;50.118;8.714;2022-12-05T14:02:52;18.90;;;8.00;;
8228;SDS011;4155;50.118;8.714;2022-12-05T14:05:34;16.87;;;8.77;;
8228;SDS011;4155;50.118;8.714;2022-12-05T14:11:11;14.93;;;8.67;;
8228;SDS011;4155;50.118;8.714;2022-12-05T14:13:39;16.50;;;7.60;;
8228;SDS011;4155;50.118;8.714;2022-12-05T14:19:23;16.50;;;7.50;;
8228;SDS011;4155;50.118;8.714;2022-12-05T14:22:07;14.63;;;7.13;;
8228;SDS011;4155;50.118;8.714;2022-12-05T14:24:51;16.87;;;8.60;;
8228;SDS011;4155;50.118;8.714;2022-12-05T14:27:40;17.80;;;8.17;;
8228;SDS011;4155;50.118;8.714;2022-12-05T14:30:18;17.03;;;8.50;;
8228;SDS011;4155;50.118;8.714;2022-12-05T14:32:50;17.53;;;9.30;;
8228;SDS011;4155;50.118;8.714;2022-12-05T14:35:23;19.80;;;8.23;;
8228;SDS011;4155;50.118;8.714;2022-12-05T14:37:55;16.20;;;8.27;;
8228;SDS011;4155;50.118;8.714;2022-12-05T14:40:28;17.83;;;7.27;;
8228;SDS011;4155;50.118;8.714;2022-12-05T14:42:58;13.10;;;7.70;;
8228;SDS011;4155;50.118;8.714;2022-12-05T14:45:32;17.53;;;7.57;;
8228;SDS011;4155;50.118;8.714;2022-12-05T14:48:03;15.43;;;8.70;;
8228;SDS011;4155;50.118;8.714;2022-12-05T14:50:35;16.10;;;8.57;;
8228;SDS011;4155;50.118;8.714;2022-12-05T14:53:22;14.87;;;7.60;;
8228;SDS011;4155;50.118;8.714;2022-12-05T14:56:04;15.63;;;8.07;;
8228;SDS011;4155;50.118;8.714;2022-12-05T14:58:40;15.47;;;7.97;;
8228;SDS011;4155;50.118;8.714;2022-12-05T15:01:14;18.60;;;8.20;;
8228;SDS011;4155;50.118;8.714;2022-12-05T15:06:41;15.70;;;7.20;;
8228;SDS011;4155;50.118;8.714;2022-12-05T15:09:23;13.97;;;7.90;;
8228;SDS011;4155;50.118;8.714;2022-12-05T15:12:05;11.03;;;6.80;;
8228;SDS011;4155;50.118;8.714;2022-12-05T15:14:39;12.50;;;6.77;;
8228;SDS011;4155;50.118;8.714;2022-12-05T15:17:14;14.80;;;7.23;;
8228;SDS011;4155;50.118;8.714;2022-12-05T15:19:44;15.57;;;7.70;;
8228;SDS011;4155;50.118;8.714;2022-12-05T15:22:20;12.43;;;7.40;;
8228;SDS011;4155;50.118;8.714;2022-12-05T15:24:51;13.23;;;7.03;;
8228;SDS011;4155;50.118;8.714;2022-12-05T15:27:19;12.87;;;6.93;;
8228;SDS011;4155;50.118;8.714;2022-12-05T15:29:47;10.37;;;6.27;;
8228;SDS011;4155;50.118;8.714;2022-12-05T15:32:20;9.60;;;5.80;;
8228;SDS011;4155;50.118;8.714;2022-12-05T15:34:52;10.97;;;6.23;;
8228;SDS011;4155;50.118;8.714;2022-12-05T15:37:28;11.70;;;7.17;;
8228;SDS011;4155;50.118;8.714;2022-12-05T15:40:01;10.63;;;6.20;;
8228;SDS011;4155;50.118;8.714;2022-12-05T15:42:31;10.37;;;6.17;;
8228;SDS011;4155;50.118;8.714;2022-12-05T15:45:19;10.77;;;6.60;;
8228;SDS011;4155;50.118;8.714;2022-12-05T15:47:49;13.23;;;6.63;;
8228;SDS011;4155;50.118;8.714;2022-12-05T15:50:21;13.20;;;6.57;;